createdAt,value
2022-09-05T00:01:45.224Z,20.61
2022-09-05T00:04:25.260Z,20.61
2022-09-05T00:07:05.079Z,20.56
2022-09-05T00:09:58.953Z,20.66
2022-09-05T00:12:31.926Z,20.67
2022-09-05T00:15:26.177Z,20.60
2022-09-05T00:20:58.812Z,20.69
2022-09-05T00:24:21.021Z,20.58
2022-09-05T00:24:42.666Z,20.66
2022-09-05T00:27:20.548Z,20.60
2022-09-05T00:31:52.024Z,20.57
2022-09-05T00:33:17.581Z,20.49
2022-09-05T00:36:09.695Z,20.37
2022-09-05T00:38:44.317Z,20.38
2022-09-05T00:41:16.495Z,20.42
2022-09-05T00:43:51.264Z,20.28
2022-09-05T00:46:25.882Z,20.25
2022-09-05T00:49:10.721Z,20.38
2022-09-05T00:51:44.570Z,20.24
2022-09-05T00:54:45.342Z,20.28
2022-09-05T00:57:36.956Z,20.03
2022-09-05T01:00:18.135Z,20.25
2022-09-05T01:03:10.115Z,20.12
2022-09-05T01:05:51.985Z,20.08
2022-09-05T01:08:46.458Z,20.10
2022-09-05T01:11:32.578Z,20.05
2022-09-05T01:14:19.989Z,19.92
2022-09-05T01:17:11.258Z,19.95
2022-09-05T01:19:52.556Z,19.98
2022-09-05T01:22:49.195Z,19.64
2022-09-05T01:25:31.889Z,19.92
2022-09-05T01:29:17.389Z,20.06
2022-09-05T01:31:07.741Z,19.84
2022-09-05T01:33:50.057Z,19.83
2022-09-05T01:36:46.828Z,19.89
2022-09-05T01:40:15.383Z,19.94
2022-09-05T01:42:31.667Z,19.73
2022-09-05T01:45:10.244Z,19.78
2022-09-05T01:47:52.796Z,19.74
2022-09-05T01:50:37.863Z,19.78
2022-09-05T01:53:25.902Z,19.52
2022-09-05T01:56:34.305Z,19.73
2022-09-05T01:59:19.844Z,19.67
2022-09-05T02:02:09.005Z,19.71
2022-09-05T02:05:14.279Z,19.49
2022-09-05T02:08:09.016Z,19.57
2022-09-05T02:10:55.021Z,19.59
2022-09-05T02:13:32.410Z,19.60
2022-09-05T02:16:07.186Z,19.49
2022-09-05T02:18:55.053Z,19.50
2022-09-05T02:21:33.447Z,19.49
2022-09-05T02:24:17.161Z,19.46
2022-09-05T02:27:01.958Z,19.46
2022-09-05T02:29:39.029Z,19.32
2022-09-05T02:32:16.407Z,19.37
2022-09-05T02:34:59.548Z,19.42
2022-09-05T02:40:31.234Z,19.46
2022-09-05T02:45:02.754Z,19.47
2022-09-05T02:45:18.189Z,19.42
2022-09-05T02:46:34.503Z,19.42
2022-09-05T02:49:14.001Z,19.42
2022-09-05T02:57:28.266Z,19.32
2022-09-05T02:57:43.275Z,19.23
2022-09-05T02:58:07.235Z,19.21
2022-09-05T03:00:45.087Z,19.32
2022-09-05T03:03:29.558Z,19.34
2022-09-05T03:06:03.993Z,19.29
2022-09-05T03:09:09.850Z,19.35
2022-09-05T03:12:28.533Z,19.28
2022-09-05T03:15:25.949Z,19.27
2022-09-05T03:18:20.616Z,19.13
2022-09-05T03:21:29.367Z,19.26
2022-09-05T03:24:40.417Z,19.23
2022-09-05T03:27:38.745Z,19.12
2022-09-05T03:30:13.116Z,19.27
2022-09-05T03:33:05.655Z,19.36
2022-09-05T03:36:08.920Z,19.26
2022-09-05T03:39:23.203Z,19.06
2022-09-05T03:42:19.097Z,19.09
2022-09-05T03:45:02.591Z,19.16
2022-09-05T03:48:27.999Z,19.06
2022-09-05T03:55:42.719Z,19.06
2022-09-05T03:57:23.219Z,19.06
2022-09-05T03:57:42.356Z,19.00
2022-09-05T04:00:23.004Z,19.05
2022-09-05T04:08:10.247Z,18.94
2022-09-05T04:08:23.703Z,18.96
2022-09-05T04:08:58.033Z,19.03
2022-09-05T04:11:35.744Z,18.98
2022-09-05T04:14:10.204Z,19.00
2022-09-05T04:16:52.576Z,19.12
2022-09-05T04:19:31.191Z,19.09
2022-09-05T04:22:16.017Z,19.03
2022-09-05T04:24:51.697Z,19.01
2022-09-05T04:27:34.330Z,19.14
2022-09-05T04:30:38.020Z,19.10
2022-09-05T04:33:22.307Z,19.04
2022-09-05T04:36:20.963Z,18.95
2022-09-05T04:39:09.870Z,18.92
2022-09-05T04:41:45.677Z,18.73
2022-09-05T04:44:20.149Z,18.97
2022-09-05T04:46:56.352Z,18.99
2022-09-05T04:49:30.700Z,18.80
2022-09-05T04:52:41.362Z,18.78
2022-09-05T04:55:13.080Z,18.70
2022-09-05T04:57:51.783Z,18.58
2022-09-05T05:06:01.008Z,18.63
2022-09-05T05:06:14.661Z,18.83
2022-09-05T05:09:10.872Z,18.62
2022-09-05T05:16:00.343Z,18.97
2022-09-05T05:18:12.190Z,18.84
2022-09-05T05:18:13.756Z,18.89
2022-09-05T05:20:44.057Z,18.98
2022-09-05T05:23:17.760Z,18.91
2022-09-05T05:25:53.459Z,19.02
2022-09-05T05:28:30.436Z,19.16
2022-09-05T05:31:13.387Z,19.20
2022-09-05T05:33:46.935Z,19.22
2022-09-05T05:36:25.902Z,19.02
2022-09-05T05:39:00.927Z,19.13
2022-09-05T05:41:42.496Z,19.28
2022-09-05T05:44:16.122Z,19.35
2022-09-05T05:47:02.116Z,19.42
2022-09-05T05:49:49.427Z,19.54
2022-09-05T05:52:57.033Z,19.62
2022-09-05T05:55:51.901Z,19.50
2022-09-05T05:58:39.434Z,19.34
2022-09-05T06:01:56.060Z,19.49
2022-09-05T06:04:57.943Z,19.29
2022-09-05T06:08:26.199Z,19.59
2022-09-05T06:14:55.864Z,19.67
2022-09-05T06:14:56.698Z,19.53
2022-09-05T06:18:03.520Z,19.68
2022-09-05T06:22:06.138Z,19.78
2022-09-05T06:24:12.770Z,19.56
2022-09-05T06:27:03.801Z,19.67
2022-09-05T06:29:47.348Z,19.68
2022-09-05T06:32:32.654Z,19.67
2022-09-05T06:35:24.898Z,19.71
2022-09-05T06:38:05.067Z,19.81
2022-09-05T06:40:44.703Z,19.81
2022-09-05T06:43:39.735Z,19.89
2022-09-05T06:47:05.766Z,19.99
2022-09-05T06:49:30.562Z,19.91
2022-09-05T06:52:29.344Z,19.94
2022-09-05T06:55:29.399Z,19.92
2022-09-05T06:58:27.855Z,19.80
2022-09-05T07:01:01.755Z,20.03
2022-09-05T07:04:34.521Z,19.99
2022-09-05T07:07:06.787Z,20.09
2022-09-05T07:09:59.136Z,20.08
2022-09-05T07:12:33.109Z,20.21
2022-09-05T07:15:14.384Z,20.17
2022-09-05T07:18:09.980Z,20.27
2022-09-05T07:21:16.864Z,20.43
2022-09-05T07:24:09.886Z,20.34
2022-09-05T07:26:53.776Z,20.36
2022-09-05T07:29:32.396Z,20.53
2022-09-05T07:32:06.395Z,20.65
2022-09-05T07:34:41.033Z,20.79
2022-09-05T07:37:16.295Z,20.90
2022-09-05T07:39:54.512Z,20.79
2022-09-05T07:42:29.934Z,21.12
2022-09-05T07:45:06.482Z,21.23
2022-09-05T07:47:39.361Z,21.15
2022-09-05T07:53:31.179Z,21.21
2022-09-05T07:57:03.849Z,21.38
2022-09-05T07:57:08.508Z,21.34
2022-09-05T07:58:53.654Z,21.26
2022-09-05T08:01:25.185Z,21.59
2022-09-05T08:03:59.017Z,21.87
2022-09-05T08:07:45.825Z,21.87
2022-09-05T08:10:08.118Z,21.95
2022-09-05T08:12:29.197Z,21.76
2022-09-05T08:15:10.224Z,22.16
2022-09-05T08:17:58.682Z,22.34
2022-09-05T08:20:35.884Z,22.50
2022-09-05T08:23:21.759Z,22.54
2022-09-05T08:26:00.191Z,22.55
2022-09-05T08:28:39.898Z,22.66
2022-09-05T08:31:21.545Z,22.74
2022-09-05T08:33:55.865Z,22.69
2022-09-05T08:36:34.948Z,22.91
2022-09-05T08:39:10.437Z,22.81
2022-09-05T08:42:03.369Z,23.11
2022-09-05T08:46:44.008Z,23.10
2022-09-05T08:47:45.300Z,23.03
2022-09-05T08:50:54.937Z,23.20
2022-09-05T08:53:46.090Z,23.33
2022-09-05T08:56:25.376Z,23.44
2022-09-05T08:59:28.180Z,23.60
2022-09-05T09:02:48.148Z,23.61
2022-09-05T09:05:14.511Z,23.75
2022-09-05T09:07:52.511Z,23.85
2022-09-05T09:10:45.207Z,24.18
2022-09-05T09:13:29.075Z,24.29
2022-09-05T09:16:10.252Z,24.66
2022-09-05T09:19:02.093Z,24.83
2022-09-05T09:21:42.380Z,24.89
2022-09-05T09:24:28.608Z,24.96
2022-09-05T09:27:05.324Z,25.32
2022-09-05T09:29:42.871Z,25.70
2022-09-05T09:32:16.722Z,25.84
2022-09-05T09:34:57.904Z,25.93
2022-09-05T09:37:59.839Z,25.93
2022-09-05T09:40:52.409Z,26.02
2022-09-05T09:43:38.457Z,26.06
2022-09-05T09:46:33.715Z,26.24
2022-09-05T09:49:23.728Z,26.23
2022-09-05T09:52:33.607Z,26.49
2022-09-05T09:55:41.111Z,26.48
2022-09-05T09:58:29.647Z,26.56
2022-09-05T10:01:20.298Z,26.71
2022-09-05T10:10:40.475Z,26.81
2022-09-05T10:10:46.918Z,26.76
2022-09-05T10:11:49.929Z,26.56
2022-09-05T10:14:49.084Z,27.06
2022-09-05T10:17:38.406Z,26.96
2022-09-05T10:20:42.192Z,27.24
2022-09-05T10:23:45.442Z,27.38
2022-09-05T10:26:50.424Z,27.44
2022-09-05T10:29:45.820Z,27.48
2022-09-05T10:35:04.487Z,27.44
2022-09-05T10:35:23.766Z,27.36
2022-09-05T10:38:10.698Z,27.58
2022-09-05T10:41:21.257Z,27.64
2022-09-05T10:43:51.830Z,27.65
2022-09-05T10:46:50.056Z,27.78
2022-09-05T10:49:30.012Z,27.61
2022-09-05T10:52:18.168Z,27.67
2022-09-05T10:55:14.954Z,27.81
2022-09-05T10:57:58.958Z,27.76
2022-09-05T11:02:19.414Z,27.93
2022-09-05T11:03:50.781Z,28.00
2022-09-05T11:06:31.247Z,28.02
2022-09-05T11:09:16.571Z,28.05
2022-09-05T11:12:03.787Z,28.07
2022-09-05T11:14:52.523Z,28.15
2022-09-05T11:17:33.416Z,27.97
2022-09-05T11:20:36.933Z,27.98
2022-09-05T11:23:12.761Z,27.94
2022-09-05T11:25:46.296Z,27.96
2022-09-05T11:28:23.583Z,28.16
2022-09-05T11:31:00.749Z,28.24
2022-09-05T11:39:47.982Z,28.24
2022-09-05T11:40:02.213Z,28.27
2022-09-05T11:40:41.879Z,28.28
2022-09-05T11:43:39.949Z,28.17
2022-09-05T11:46:30.134Z,28.13
2022-09-05T11:49:36.757Z,28.36
2022-09-05T11:52:43.745Z,28.45
2022-09-05T11:55:46.591Z,28.59
2022-09-05T11:58:47.334Z,28.62
2022-09-05T12:01:41.704Z,28.73
2022-09-05T12:05:49.079Z,28.53
2022-09-05T12:08:00.334Z,28.58
2022-09-05T12:10:47.657Z,28.62
2022-09-05T12:13:38.163Z,28.68
2022-09-05T12:16:36.291Z,28.88
2022-09-05T12:22:25.753Z,29.14
2022-09-05T12:25:27.286Z,29.22
2022-09-05T12:32:37.709Z,29.35
2022-09-05T12:36:06.949Z,29.55
2022-09-05T12:39:56.016Z,29.59
2022-09-05T12:41:36.065Z,29.69
2022-09-05T12:42:09.539Z,29.05
2022-09-05T12:42:09.640Z,29.31
2022-09-05T12:44:39.401Z,29.82
2022-09-05T12:46:06.996Z,29.87
2022-09-05T12:48:56.853Z,29.91
2022-09-05T12:51:45.855Z,30.02
2022-09-05T12:54:33.761Z,29.86
2022-09-05T13:03:00.826Z,30.06
2022-09-05T13:03:02.983Z,30.23
2022-09-05T13:03:27.629Z,30.17
2022-09-05T13:06:05.292Z,30.25
2022-09-05T13:08:59.746Z,30.15
2022-09-05T13:14:52.606Z,29.91
2022-09-05T13:15:05.992Z,29.72
2022-09-05T13:17:44.432Z,29.95
2022-09-05T13:20:21.845Z,29.98
2022-09-05T13:22:54.777Z,30.11
2022-09-05T13:25:29.729Z,30.24
2022-09-05T13:28:06.415Z,30.21
2022-09-05T13:35:31.666Z,30.03
2022-09-05T13:38:11.132Z,29.93
2022-09-05T13:38:11.258Z,29.80
2022-09-05T13:39:52.511Z,30.00
2022-09-05T13:42:27.747Z,30.05
2022-09-05T13:45:00.885Z,30.09
2022-09-05T13:47:59.131Z,30.05
2022-09-05T13:50:32.119Z,30.03
2022-09-05T13:53:16.753Z,29.98
2022-09-05T13:55:56.748Z,29.73
2022-09-05T13:58:42.852Z,29.77
2022-09-05T14:01:49.775Z,29.79
2022-09-05T14:05:11.170Z,29.85
2022-09-05T14:08:21.260Z,29.92
2022-09-05T14:11:13.128Z,30.03
2022-09-05T14:14:11.223Z,30.06
2022-09-05T14:16:50.679Z,30.13
2022-09-05T14:19:43.208Z,30.04
2022-09-05T14:22:34.254Z,30.05
2022-09-05T14:25:08.132Z,30.02
2022-09-05T14:27:44.342Z,29.93
2022-09-05T14:34:05.744Z,30.02
2022-09-05T14:37:45.201Z,29.98
2022-09-05T14:38:00.594Z,30.06
2022-09-05T14:40:30.015Z,30.89
2022-09-05T14:43:27.111Z,30.12
2022-09-05T14:46:24.113Z,30.23
2022-09-05T14:49:29.702Z,30.04
2022-09-05T14:52:01.289Z,30.13
2022-09-05T15:02:42.654Z,29.79
2022-09-05T15:02:53.003Z,29.48
2022-09-05T15:03:20.304Z,29.75
2022-09-05T15:05:51.400Z,29.50
2022-09-05T15:11:25.591Z,29.72
2022-09-05T15:12:23.951Z,29.75
2022-09-05T15:14:24.557Z,29.61
2022-09-05T15:17:00.742Z,29.57
2022-09-05T15:20:06.120Z,29.64
2022-09-05T15:22:41.961Z,29.59
2022-09-05T15:25:21.496Z,29.51
2022-09-05T15:27:52.988Z,29.34
2022-09-05T15:30:35.011Z,29.23
2022-09-05T15:33:18.492Z,29.34
2022-09-05T15:35:59.956Z,29.31
2022-09-05T15:38:50.353Z,29.45
2022-09-05T15:41:26.904Z,29.33
2022-09-05T15:44:09.548Z,29.42
2022-09-05T15:46:49.509Z,29.34
2022-09-05T15:49:29.097Z,29.38
2022-09-05T15:52:05.527Z,29.25
2022-09-05T15:54:39.467Z,29.24
2022-09-05T15:57:18.021Z,29.42
2022-09-05T15:59:51.529Z,29.84
2022-09-05T16:02:24.947Z,30.20
2022-09-05T16:10:02.760Z,30.54
2022-09-05T16:10:47.208Z,30.37
2022-09-05T16:12:05.201Z,29.89
2022-09-05T16:14:28.052Z,29.59
2022-09-05T16:23:15.830Z,29.47
2022-09-05T16:23:29.891Z,29.24
2022-09-05T16:23:33.323Z,29.34
2022-09-05T16:25:53.150Z,29.07
2022-09-05T16:28:27.150Z,28.95
2022-09-05T16:31:02.509Z,29.04
2022-09-05T16:33:36.229Z,28.81
2022-09-05T16:36:16.166Z,28.92
2022-09-05T16:38:51.812Z,28.91
2022-09-05T16:41:34.967Z,28.63
2022-09-05T16:44:12.155Z,28.80
2022-09-05T16:46:48.957Z,28.70
2022-09-05T16:49:42.345Z,28.78
2022-09-05T16:52:18.018Z,28.71
2022-09-05T16:54:52.835Z,28.75
2022-09-05T16:57:29.843Z,28.68
2022-09-05T17:00:02.020Z,28.57
2022-09-05T17:02:36.528Z,28.38
2022-09-05T17:05:21.950Z,28.33
2022-09-05T17:08:08.873Z,28.31
2022-09-05T17:10:57.326Z,28.03
2022-09-05T17:13:43.596Z,28.26
2022-09-05T17:16:24.856Z,28.16
2022-09-05T17:18:56.569Z,28.14
2022-09-05T17:23:05.829Z,28.08
2022-09-05T17:29:21.169Z,27.97
2022-09-05T17:29:38.124Z,27.99
2022-09-05T17:33:54.582Z,27.68
2022-09-05T17:36:36.398Z,27.82
2022-09-05T17:39:44.758Z,27.82
2022-09-05T17:42:28.243Z,27.58
2022-09-05T17:45:08.960Z,27.60
2022-09-05T17:47:49.513Z,27.50
2022-09-05T17:50:43.930Z,27.52
2022-09-05T17:53:26.864Z,27.41
2022-09-05T17:56:15.333Z,27.37
2022-09-05T17:59:04.286Z,27.36
2022-09-05T18:01:35.301Z,27.29
2022-09-05T18:04:18.067Z,27.20
2022-09-05T18:06:59.599Z,27.20
2022-09-05T18:10:01.462Z,27.19
2022-09-05T18:13:31.575Z,27.09
2022-09-05T18:16:03.803Z,27.15
2022-09-05T18:19:32.121Z,27.00
2022-09-05T18:21:46.550Z,27.04
2022-09-05T18:24:33.394Z,26.73
2022-09-05T18:27:30.848Z,26.86
2022-09-05T18:30:03.656Z,26.65
2022-09-05T18:32:51.948Z,26.69
2022-09-05T18:35:36.829Z,26.45
2022-09-05T18:38:51.397Z,26.64
2022-09-05T18:41:25.373Z,26.43
2022-09-05T18:44:13.226Z,26.48
2022-09-05T18:46:52.571Z,26.41
2022-09-05T18:50:24.760Z,26.46
2022-09-05T18:52:23.731Z,26.32
2022-09-05T18:55:28.006Z,26.23
2022-09-05T18:57:59.005Z,26.12
2022-09-05T19:00:46.645Z,26.07
2022-09-05T19:03:25.106Z,26.12
2022-09-05T19:06:37.015Z,26.05
2022-09-05T19:08:56.676Z,26.05
2022-09-05T19:11:31.821Z,25.88
2022-09-05T19:14:26.425Z,25.91
2022-09-05T19:17:10.404Z,25.76
2022-09-05T19:20:31.743Z,25.68
2022-09-05T19:23:11.003Z,25.64
2022-09-05T19:25:46.054Z,25.54
2022-09-05T19:35:55.787Z,25.53
2022-09-05T19:37:09.249Z,25.43
2022-09-05T19:37:12.157Z,25.36
2022-09-05T19:37:26.146Z,25.44
2022-09-05T19:44:08.992Z,25.32
2022-09-05T19:47:38.911Z,25.30
2022-09-05T19:47:55.535Z,25.26
2022-09-05T19:48:34.669Z,25.26
2022-09-05T19:51:17.249Z,25.07
2022-09-05T19:54:05.069Z,25.15
2022-09-05T19:56:39.100Z,25.09
2022-09-05T19:59:19.444Z,25.19
2022-09-05T20:01:51.869Z,25.09
2022-09-05T20:04:26.541Z,24.85
2022-09-05T20:06:56.484Z,24.90
2022-09-05T20:09:29.275Z,24.85
2022-09-05T20:12:00.839Z,24.84
2022-09-05T20:14:32.362Z,24.91
2022-09-05T20:17:21.858Z,24.81
2022-09-05T20:20:07.686Z,24.79
2022-09-05T20:22:48.893Z,24.51
2022-09-05T20:25:35.380Z,24.45
2022-09-05T20:28:10.146Z,24.50
2022-09-05T20:30:45.682Z,24.54
2022-09-05T20:33:23.314Z,24.48
2022-09-05T20:39:54.158Z,24.48
2022-09-05T20:43:09.055Z,24.50
2022-09-05T20:43:22.129Z,24.30
2022-09-05T20:44:41.512Z,24.37
2022-09-05T20:54:07.542Z,24.22
2022-09-05T20:54:19.914Z,24.22
2022-09-05T20:54:24.430Z,24.16
2022-09-05T20:56:09.662Z,24.28
2022-09-05T20:58:41.905Z,24.18
2022-09-05T21:01:21.060Z,24.15
2022-09-05T21:04:00.875Z,24.17
2022-09-05T21:06:34.496Z,24.12
2022-09-05T21:09:24.548Z,24.16
2022-09-05T21:11:55.831Z,23.90
2022-09-05T21:14:29.329Z,23.85
2022-09-05T21:17:04.884Z,23.97
2022-09-05T21:19:53.526Z,23.89
2022-09-05T21:22:27.505Z,24.10
2022-09-05T21:25:28.275Z,24.10
2022-09-05T21:28:37.345Z,23.85
2022-09-05T21:31:16.229Z,23.83
2022-09-05T21:33:47.398Z,23.88
2022-09-05T21:36:19.365Z,23.75
2022-09-05T21:38:49.039Z,23.88
2022-09-05T21:41:21.289Z,23.73
2022-09-05T21:47:34.727Z,23.55
2022-09-05T21:47:48.802Z,23.51
2022-09-05T21:49:34.922Z,23.58
2022-09-05T21:52:06.168Z,23.57
2022-09-05T21:58:27.842Z,23.56
2022-09-05T21:59:28.920Z,23.55
2022-09-05T22:00:26.368Z,23.46
2022-09-05T22:02:56.232Z,23.47
2022-09-05T22:05:26.322Z,23.40
2022-09-05T22:07:56.230Z,23.33
2022-09-05T22:10:28.804Z,23.39
2022-09-05T22:13:17.624Z,23.29
2022-09-05T22:15:48.488Z,23.43
2022-09-05T22:18:18.493Z,23.44
2022-09-05T22:21:31.685Z,23.23
2022-09-05T22:23:44.388Z,23.33
2022-09-05T22:26:14.857Z,23.17
2022-09-05T22:28:49.560Z,23.37
2022-09-05T22:31:19.933Z,23.20
2022-09-05T22:33:51.424Z,23.35
2022-09-05T22:36:21.414Z,23.34
2022-09-05T22:38:51.053Z,23.30
2022-09-05T22:41:29.947Z,23.37
2022-09-05T22:44:02.779Z,23.28
2022-09-05T22:46:33.289Z,23.33
2022-09-05T22:49:02.936Z,23.32
2022-09-05T22:51:33.172Z,23.29
2022-09-05T22:54:02.869Z,23.29
2022-09-05T22:56:33.697Z,23.17
2022-09-05T22:59:07.147Z,23.19
2022-09-05T23:01:36.993Z,23.09
2022-09-05T23:04:06.714Z,23.19
2022-09-05T23:06:36.393Z,23.08
2022-09-05T23:09:06.530Z,23.09
2022-09-05T23:11:36.198Z,23.00
2022-09-05T23:14:08.403Z,22.99
2022-09-05T23:16:38.052Z,22.95
2022-09-05T23:19:07.666Z,22.91
2022-09-05T23:21:37.332Z,22.72
2022-09-05T23:24:07.488Z,22.87
2022-09-05T23:26:37.217Z,22.61
2022-09-05T23:29:09.467Z,22.93
2022-09-05T23:31:39.214Z,22.71
2022-09-05T23:34:08.878Z,22.73
2022-09-05T23:36:38.720Z,22.60
2022-09-05T23:39:08.355Z,22.66
2022-09-05T23:41:38.103Z,22.56
2022-09-05T23:44:10.368Z,22.64
2022-09-05T23:46:40.497Z,22.46
2022-09-05T23:49:10.282Z,22.43
2022-09-05T23:51:39.954Z,22.53
2022-09-05T23:54:09.881Z,22.48
2022-09-05T23:56:39.540Z,22.42
2022-09-05T23:59:12.065Z,22.45
